createdAt,value
2023-01-30T00:00:31.391Z,-1.96
2023-01-30T00:01:34.939Z,-1.97
2023-01-30T00:02:37.320Z,-1.97
2023-01-30T00:03:39.672Z,-1.97
2023-01-30T00:04:42.075Z,-1.97
2023-01-30T00:05:44.411Z,-1.96
2023-01-30T00:06:46.832Z,-1.95
2023-01-30T00:07:49.313Z,-1.95
2023-01-30T00:08:51.871Z,-1.95
2023-01-30T00:09:54.375Z,-1.95
2023-01-30T00:10:56.739Z,-1.95
2023-01-30T00:11:59.090Z,-1.94
2023-01-30T00:13:01.471Z,-1.94
2023-01-30T00:14:04.017Z,-1.94
2023-01-30T00:15:07.115Z,-1.93
2023-01-30T00:16:10.510Z,-1.93
2023-01-30T00:17:12.940Z,-1.93
2023-01-30T00:18:15.318Z,-1.93
2023-01-30T00:19:17.716Z,-1.92
2023-01-30T00:20:20.257Z,-1.92
2023-01-30T00:21:22.894Z,-1.92
2023-01-30T00:22:25.241Z,-1.91
2023-01-30T00:23:28.347Z,-1.91
2023-01-30T00:24:31.086Z,-1.91
2023-01-30T00:25:33.619Z,-1.90
2023-01-30T00:26:36.047Z,-1.90
2023-01-30T00:27:38.450Z,-1.90
2023-01-30T00:28:40.873Z,-1.90
2023-01-30T00:29:45.695Z,-1.90
2023-01-30T00:30:53.325Z,-1.91
2023-01-30T00:31:55.807Z,-1.92
2023-01-30T00:32:59.658Z,-1.93
2023-01-30T00:34:01.999Z,-1.93
2023-01-30T00:35:04.665Z,-1.93
2023-01-30T00:36:07.380Z,-1.93
2023-01-30T00:37:09.760Z,-1.93
2023-01-30T00:38:12.108Z,-1.93
2023-01-30T00:39:14.520Z,-1.94
2023-01-30T00:40:17.446Z,-1.95
2023-01-30T00:41:20.073Z,-1.95
2023-01-30T00:42:40.647Z,-1.95
2023-01-30T00:44:01.444Z,-1.95
2023-01-30T00:45:22.515Z,-1.95
2023-01-30T00:46:50.156Z,-1.95
2023-01-30T00:47:52.484Z,-1.95
2023-01-30T00:48:54.846Z,-1.95
2023-01-30T00:49:57.225Z,-1.95
2023-01-30T00:50:59.591Z,-1.95
2023-01-30T00:52:02.483Z,-1.96
2023-01-30T00:53:04.855Z,-1.97
2023-01-30T00:54:07.366Z,-1.97
2023-01-30T00:55:10.023Z,-1.96
2023-01-30T00:56:12.432Z,-1.96
2023-01-30T00:57:14.837Z,-1.97
2023-01-30T00:58:17.358Z,-1.97
2023-01-30T00:59:19.750Z,-1.96
2023-01-30T01:00:23.407Z,-1.96
2023-01-30T01:01:25.937Z,-1.96
2023-01-30T01:02:28.327Z,-1.96
2023-01-30T01:03:30.696Z,-1.96
2023-01-30T01:04:43.390Z,-1.96
2023-01-30T01:05:46.417Z,-1.97
2023-01-30T01:06:48.796Z,-1.97
2023-01-30T01:07:51.170Z,-1.97
2023-01-30T01:08:53.584Z,-1.97
2023-01-30T01:09:56.001Z,-1.97
2023-01-30T01:11:00.565Z,-1.97
2023-01-30T01:12:03.094Z,-1.97
2023-01-30T01:13:07.044Z,-1.98
2023-01-30T01:14:09.375Z,-1.98
2023-01-30T01:15:12.799Z,-1.98
2023-01-30T01:16:15.157Z,-1.98
2023-01-30T01:17:17.494Z,-1.98
2023-01-30T01:18:19.937Z,-1.98
2023-01-30T01:19:22.361Z,-1.97
2023-01-30T01:20:24.821Z,-1.97
2023-01-30T01:21:27.253Z,-1.97
2023-01-30T01:22:29.605Z,-1.97
2023-01-30T01:23:31.954Z,-1.96
2023-01-30T01:24:34.287Z,-1.96
2023-01-30T01:25:36.688Z,-1.95
2023-01-30T01:26:39.322Z,-1.95
2023-01-30T01:27:41.687Z,-1.95
2023-01-30T01:28:44.174Z,-1.94
2023-01-30T01:29:46.524Z,-1.94
2023-01-30T01:30:48.914Z,-1.93
2023-01-30T01:31:51.337Z,-1.93
2023-01-30T01:32:53.696Z,-1.93
2023-01-30T01:33:56.693Z,-1.93
2023-01-30T01:34:59.029Z,-1.93
2023-01-30T01:36:03.624Z,-1.93
2023-01-30T01:37:06.848Z,-1.93
2023-01-30T01:38:09.797Z,-1.94
2023-01-30T01:39:12.176Z,-1.94
2023-01-30T01:40:40.276Z,-1.95
2023-01-30T01:41:42.660Z,-1.96
2023-01-30T01:42:45.707Z,-1.96
2023-01-30T01:44:06.721Z,-1.97
2023-01-30T01:45:09.068Z,-1.97
2023-01-30T01:46:20.879Z,-1.97
2023-01-30T01:47:23.250Z,-1.98
2023-01-30T01:48:42.328Z,-1.99
2023-01-30T01:49:44.705Z,-2.00
2023-01-30T01:50:53.615Z,-2.00
2023-01-30T01:52:16.262Z,-2.00
2023-01-30T01:53:22.049Z,-2.01
2023-01-30T01:54:47.306Z,-2.02
2023-01-30T01:55:53.528Z,-2.03
2023-01-30T01:56:55.925Z,-2.04
2023-01-30T01:58:06.071Z,-2.04
2023-01-30T01:59:26.835Z,-2.06
2023-01-30T02:00:48.036Z,-2.08
2023-01-30T02:01:51.320Z,-2.09
2023-01-30T02:02:59.404Z,-2.10
2023-01-30T02:04:04.901Z,-2.10
2023-01-30T02:05:11.127Z,-2.12
2023-01-30T02:06:15.359Z,-2.12
2023-01-30T02:07:21.513Z,-2.12
2023-01-30T02:08:29.201Z,-2.13
2023-01-30T02:09:31.802Z,-2.13
2023-01-30T02:11:04.876Z,-2.13
2023-01-30T02:12:07.362Z,-2.13
2023-01-30T02:13:09.745Z,-2.13
2023-01-30T02:14:13.213Z,-2.13
2023-01-30T02:15:15.792Z,-2.13
2023-01-30T02:16:18.478Z,-2.13
2023-01-30T02:17:21.022Z,-2.13
2023-01-30T02:18:23.456Z,-2.13
2023-01-30T02:19:45.430Z,-2.14
2023-01-30T02:21:06.452Z,-2.14
2023-01-30T02:22:36.838Z,-2.15
2023-01-30T02:24:07.187Z,-2.15
2023-01-30T02:25:50.742Z,-2.15
2023-01-30T02:26:53.097Z,-2.16
2023-01-30T02:28:03.660Z,-2.17
2023-01-30T02:29:05.932Z,-2.18
2023-01-30T02:30:22.253Z,-2.18
2023-01-30T02:31:28.615Z,-2.19
2023-01-30T02:32:40.096Z,-2.19
2023-01-30T02:33:48.261Z,-2.19
2023-01-30T02:34:50.546Z,-2.18
2023-01-30T02:36:03.655Z,-2.18
2023-01-30T02:37:28.286Z,-2.19
2023-01-30T02:38:33.157Z,-2.19
2023-01-30T02:39:50.915Z,-2.19
2023-01-30T02:41:04.883Z,-2.20
2023-01-30T02:42:37.918Z,-2.20
2023-01-30T02:43:53.050Z,-2.20
2023-01-30T02:45:12.357Z,-2.21
2023-01-30T02:46:17.874Z,-2.21
2023-01-30T02:47:35.213Z,-2.21
2023-01-30T02:48:48.376Z,-2.21
2023-01-30T02:50:00.767Z,-2.20
2023-01-30T02:51:06.710Z,-2.20
2023-01-30T02:52:12.102Z,-2.20
2023-01-30T02:53:14.503Z,-2.21
2023-01-30T02:54:17.073Z,-2.21
2023-01-30T02:55:22.615Z,-2.21
2023-01-30T02:56:25.003Z,-2.22
2023-01-30T02:57:27.406Z,-2.23
2023-01-30T02:58:36.317Z,-2.24
2023-01-30T02:59:43.191Z,-2.24
2023-01-30T03:01:04.669Z,-2.24
2023-01-30T03:02:44.001Z,-2.25
2023-01-30T03:04:18.500Z,-2.27
2023-01-30T03:06:02.379Z,-2.28
2023-01-30T03:07:35.147Z,-2.30
2023-01-30T03:09:09.053Z,-2.31
2023-01-30T03:10:26.544Z,-2.33
2023-01-30T03:11:44.348Z,-2.34
2023-01-30T03:12:53.972Z,-2.35
2023-01-30T03:14:13.356Z,-2.35
2023-01-30T03:15:28.638Z,-2.36
2023-01-30T03:16:36.938Z,-2.37
2023-01-30T03:17:42.733Z,-2.38
2023-01-30T03:18:46.053Z,-2.38
2023-01-30T03:19:48.615Z,-2.39
2023-01-30T03:20:51.648Z,-2.39
2023-01-30T03:21:54.472Z,-2.41
2023-01-30T03:22:56.915Z,-2.42
2023-01-30T03:23:59.367Z,-2.42
2023-01-30T03:25:01.898Z,-2.43
2023-01-30T03:26:05.312Z,-2.43
2023-01-30T03:27:12.424Z,-2.44
2023-01-30T03:28:18.885Z,-2.44
2023-01-30T03:29:21.323Z,-2.44
2023-01-30T03:30:26.216Z,-2.45
2023-01-30T03:31:28.692Z,-2.45
2023-01-30T03:32:31.133Z,-2.45
2023-01-30T03:33:33.562Z,-2.45
2023-01-30T03:34:35.888Z,-2.45
2023-01-30T03:35:38.336Z,-2.46
2023-01-30T03:36:41.004Z,-2.46
2023-01-30T03:37:45.091Z,-2.46
2023-01-30T03:38:47.429Z,-2.46
2023-01-30T03:39:49.791Z,-2.45
2023-01-30T03:40:52.101Z,-2.44
2023-01-30T03:41:54.563Z,-2.44
2023-01-30T03:42:56.937Z,-2.43
2023-01-30T03:43:59.388Z,-2.43
2023-01-30T03:45:01.768Z,-2.42
2023-01-30T03:46:04.267Z,-2.42
2023-01-30T03:47:06.820Z,-2.41
2023-01-30T03:48:09.264Z,-2.40
2023-01-30T03:49:11.708Z,-2.39
2023-01-30T03:50:14.255Z,-2.38
2023-01-30T03:51:16.699Z,-2.38
2023-01-30T03:52:19.053Z,-2.37
2023-01-30T03:53:21.463Z,-2.37
2023-01-30T03:54:23.888Z,-2.36
2023-01-30T03:55:26.233Z,-2.36
2023-01-30T03:56:28.806Z,-2.35
2023-01-30T03:57:31.149Z,-2.35
2023-01-30T03:58:33.580Z,-2.35
2023-01-30T03:59:35.924Z,-2.34
2023-01-30T04:00:38.266Z,-2.34
2023-01-30T04:01:40.605Z,-2.34
2023-01-30T04:02:43.193Z,-2.34
2023-01-30T04:03:46.221Z,-2.34
2023-01-30T04:04:49.588Z,-2.34
2023-01-30T04:05:51.950Z,-2.34
2023-01-30T04:06:54.542Z,-2.33
2023-01-30T04:07:58.009Z,-2.33
2023-01-30T04:09:00.401Z,-2.34
2023-01-30T04:10:02.770Z,-2.34
2023-01-30T04:11:07.828Z,-2.34
2023-01-30T04:12:10.215Z,-2.34
2023-01-30T04:13:12.546Z,-2.34
2023-01-30T04:14:14.916Z,-2.35
2023-01-30T04:15:17.698Z,-2.35
2023-01-30T04:16:22.605Z,-2.36
2023-01-30T04:17:24.980Z,-2.37
2023-01-30T04:18:27.340Z,-2.38
2023-01-30T04:19:29.730Z,-2.38
2023-01-30T04:20:32.116Z,-2.39
2023-01-30T04:21:34.509Z,-2.39
2023-01-30T04:22:36.972Z,-2.40
2023-01-30T04:23:39.521Z,-2.40
2023-01-30T04:24:41.868Z,-2.41
2023-01-30T04:25:46.821Z,-2.42
2023-01-30T04:26:49.189Z,-2.42
2023-01-30T04:27:51.548Z,-2.43
2023-01-30T04:28:54.011Z,-2.43
2023-01-30T04:29:56.377Z,-2.44
2023-01-30T04:30:58.813Z,-2.45
2023-01-30T04:32:01.215Z,-2.45
2023-01-30T04:33:03.660Z,-2.46
2023-01-30T04:34:06.037Z,-2.46
2023-01-30T04:35:08.700Z,-2.47
2023-01-30T04:36:12.732Z,-2.48
2023-01-30T04:37:15.101Z,-2.49
2023-01-30T04:38:17.444Z,-2.49
2023-01-30T04:39:21.242Z,-2.50
2023-01-30T04:40:24.424Z,-2.50
2023-01-30T04:41:26.815Z,-2.51
2023-01-30T04:42:29.252Z,-2.51
2023-01-30T04:43:32.349Z,-2.51
2023-01-30T04:44:34.763Z,-2.51
2023-01-30T04:45:37.113Z,-2.51
2023-01-30T04:46:39.468Z,-2.52
2023-01-30T04:47:41.857Z,-2.52
2023-01-30T04:48:44.605Z,-2.52
2023-01-30T04:49:47.018Z,-2.52
2023-01-30T04:50:50.787Z,-2.52
2023-01-30T04:51:53.218Z,-2.51
2023-01-30T04:52:58.571Z,-2.51
2023-01-30T04:54:00.944Z,-2.51
2023-01-30T04:55:03.483Z,-2.51
2023-01-30T04:56:06.443Z,-2.50
2023-01-30T04:57:08.893Z,-2.49
2023-01-30T04:58:11.288Z,-2.49
2023-01-30T04:59:13.705Z,-2.48
2023-01-30T05:00:16.502Z,-2.48
2023-01-30T05:01:26.587Z,-2.48
2023-01-30T05:02:29.063Z,-2.47
2023-01-30T05:03:31.377Z,-2.47
2023-01-30T05:04:33.894Z,-2.46
2023-01-30T05:05:36.428Z,-2.45
2023-01-30T05:06:38.814Z,-2.44
2023-01-30T05:07:41.238Z,-2.42
2023-01-30T05:08:46.560Z,-2.42
2023-01-30T05:09:49.219Z,-2.40
2023-01-30T05:10:51.557Z,-2.39
2023-01-30T05:11:53.881Z,-2.38
2023-01-30T05:12:56.268Z,-2.37
2023-01-30T05:14:01.101Z,-2.36
2023-01-30T05:15:03.645Z,-2.34
2023-01-30T05:16:06.233Z,-2.33
2023-01-30T05:17:08.767Z,-2.32
2023-01-30T05:18:11.185Z,-2.32
2023-01-30T05:19:14.085Z,-2.31
2023-01-30T05:20:16.511Z,-2.30
2023-01-30T05:21:27.951Z,-2.30
2023-01-30T05:22:30.389Z,-2.30
2023-01-30T05:23:32.925Z,-2.30
2023-01-30T05:24:35.271Z,-2.29
2023-01-30T05:25:37.597Z,-2.29
2023-01-30T05:26:39.996Z,-2.29
2023-01-30T05:27:42.366Z,-2.29
2023-01-30T05:29:06.300Z,-2.29
2023-01-30T05:30:29.123Z,-2.28
2023-01-30T05:31:31.535Z,-2.29
2023-01-30T05:32:33.952Z,-2.29
2023-01-30T05:33:36.327Z,-2.30
2023-01-30T05:34:38.680Z,-2.30
2023-01-30T05:35:47.362Z,-2.31
2023-01-30T05:36:49.702Z,-2.31
2023-01-30T05:37:52.615Z,-2.31
2023-01-30T05:38:54.978Z,-2.33
2023-01-30T05:39:57.321Z,-2.34
2023-01-30T05:41:07.735Z,-2.35
2023-01-30T05:42:10.134Z,-2.37
2023-01-30T05:43:12.562Z,-2.38
2023-01-30T05:44:14.958Z,-2.39
2023-01-30T05:45:17.754Z,-2.41
2023-01-30T05:46:20.604Z,-2.43
2023-01-30T05:47:23.001Z,-2.44
2023-01-30T05:48:25.903Z,-2.45
2023-01-30T05:49:28.295Z,-2.46
2023-01-30T05:50:31.588Z,-2.47
2023-01-30T05:51:34.295Z,-2.48
2023-01-30T05:52:36.654Z,-2.49
2023-01-30T05:53:39.031Z,-2.50
2023-01-30T05:54:41.415Z,-2.51
2023-01-30T05:55:43.932Z,-2.52
2023-01-30T05:56:49.904Z,-2.53
2023-01-30T05:57:52.284Z,-2.54
2023-01-30T05:58:56.419Z,-2.55
2023-01-30T05:59:58.803Z,-2.56
2023-01-30T06:01:03.605Z,-2.58
2023-01-30T06:02:05.985Z,-2.59
2023-01-30T06:03:08.373Z,-2.60
2023-01-30T06:04:10.786Z,-2.62
2023-01-30T06:05:13.139Z,-2.64
2023-01-30T06:06:15.528Z,-2.65
2023-01-30T06:07:17.907Z,-2.66
2023-01-30T06:08:20.323Z,-2.68
2023-01-30T06:09:22.699Z,-2.69
2023-01-30T06:10:25.024Z,-2.70
2023-01-30T06:11:27.928Z,-2.72
2023-01-30T06:12:30.251Z,-2.73
2023-01-30T06:13:32.742Z,-2.74
2023-01-30T06:14:35.068Z,-2.76
2023-01-30T06:15:37.885Z,-2.77
2023-01-30T06:16:40.431Z,-2.78
2023-01-30T06:17:45.746Z,-2.79
2023-01-30T06:18:48.245Z,-2.80
2023-01-30T06:19:51.032Z,-2.81
2023-01-30T06:20:54.068Z,-2.82
2023-01-30T06:21:57.282Z,-2.84
2023-01-30T06:22:59.807Z,-2.85
2023-01-30T06:24:02.522Z,-2.86
2023-01-30T06:25:05.592Z,-2.87
2023-01-30T06:26:09.314Z,-2.87
2023-01-30T06:27:12.041Z,-2.88
2023-01-30T06:28:15.828Z,-2.88
2023-01-30T06:29:18.209Z,-2.89
2023-01-30T06:30:20.620Z,-2.89
2023-01-30T06:31:23.054Z,-2.90
2023-01-30T06:32:25.664Z,-2.91
2023-01-30T06:33:28.341Z,-2.91
2023-01-30T06:34:30.868Z,-2.91
2023-01-30T06:35:36.485Z,-2.92
2023-01-30T06:36:38.964Z,-2.93
2023-01-30T06:37:41.380Z,-2.94
2023-01-30T06:38:43.828Z,-2.95
2023-01-30T06:39:46.233Z,-2.95
2023-01-30T06:40:50.837Z,-2.95
2023-01-30T06:41:53.311Z,-2.96
2023-01-30T06:42:56.199Z,-2.96
2023-01-30T06:43:58.675Z,-2.96
2023-01-30T06:45:01.124Z,-2.96
2023-01-30T06:46:03.695Z,-2.96
2023-01-30T06:47:06.348Z,-2.96
2023-01-30T06:48:09.108Z,-2.96
2023-01-30T06:49:11.577Z,-2.95
2023-01-30T06:50:14.927Z,-2.94
2023-01-30T06:51:17.483Z,-2.93
2023-01-30T06:52:19.938Z,-2.92
2023-01-30T06:53:25.564Z,-2.91
2023-01-30T06:54:28.000Z,-2.90
2023-01-30T06:55:30.618Z,-2.89
2023-01-30T06:56:33.022Z,-2.87
2023-01-30T06:57:35.672Z,-2.85
2023-01-30T06:58:38.244Z,-2.82
2023-01-30T06:59:40.734Z,-2.80
2023-01-30T07:00:44.113Z,-2.78
2023-01-30T07:01:46.616Z,-2.76
2023-01-30T07:02:49.221Z,-2.73
2023-01-30T07:03:51.677Z,-2.71
2023-01-30T07:04:54.130Z,-2.68
2023-01-30T07:05:58.893Z,-2.66
2023-01-30T07:07:01.443Z,-2.63
2023-01-30T07:08:03.819Z,-2.59
2023-01-30T07:09:06.305Z,-2.56
2023-01-30T07:10:09.523Z,-2.53
2023-01-30T07:11:12.249Z,-2.49
2023-01-30T07:12:14.809Z,-2.45
2023-01-30T07:13:17.335Z,-2.41
2023-01-30T07:14:20.043Z,-2.37
2023-01-30T07:15:22.453Z,-2.33
2023-01-30T07:16:29.302Z,-2.28
2023-01-30T07:17:31.772Z,-2.24
2023-01-30T07:18:35.670Z,-2.19
2023-01-30T07:19:39.163Z,-2.15
2023-01-30T07:20:42.401Z,-2.10
2023-01-30T07:21:44.803Z,-2.05
2023-01-30T07:22:54.437Z,-2.01
2023-01-30T07:23:59.292Z,-1.95
2023-01-30T07:25:01.774Z,-1.89
2023-01-30T07:26:07.319Z,-1.84
2023-01-30T07:27:11.322Z,-1.79
2023-01-30T07:28:13.715Z,-1.71
2023-01-30T07:29:16.123Z,-1.66
2023-01-30T07:30:19.174Z,-1.60
2023-01-30T07:31:21.647Z,-1.54
2023-01-30T07:32:24.113Z,-1.47
2023-01-30T07:33:26.853Z,-1.40
2023-01-30T07:34:29.489Z,-1.32
2023-01-30T07:35:33.597Z,-1.25
2023-01-30T07:36:36.119Z,-1.18
2023-01-30T07:37:40.108Z,-1.12
2023-01-30T07:38:42.598Z,-1.06
2023-01-30T07:39:45.110Z,-1.01
2023-01-30T07:40:47.571Z,-0.95
2023-01-30T07:41:50.047Z,-0.91
2023-01-30T07:43:11.268Z,-0.86
2023-01-30T07:44:14.351Z,-0.79
2023-01-30T07:45:17.005Z,-0.74
2023-01-30T07:46:19.642Z,-0.68
2023-01-30T07:49:53.009Z,-0.54
2023-01-30T07:51:08.855Z,-0.49
2023-01-30T07:52:11.971Z,-0.44
2023-01-30T07:53:18.617Z,-0.40
2023-01-30T07:54:21.215Z,-0.35
2023-01-30T07:55:25.081Z,-0.31
2023-01-30T07:56:30.481Z,-0.28
2023-01-30T07:57:32.999Z,-0.24
2023-01-30T07:58:35.654Z,-0.19
2023-01-30T07:59:40.341Z,-0.14
2023-01-30T08:00:43.231Z,-0.09
2023-01-30T08:01:45.634Z,-0.05
2023-01-30T08:02:48.043Z,-0.01
2023-01-30T08:03:50.444Z,0.04
2023-01-30T08:04:52.862Z,0.09
2023-01-30T08:05:55.284Z,0.14
2023-01-30T08:06:58.273Z,0.17
2023-01-30T08:08:01.483Z,0.21
2023-01-30T08:09:07.264Z,0.24
2023-01-30T08:10:12.083Z,0.27
2023-01-30T08:11:15.153Z,0.31
2023-01-30T08:12:17.858Z,0.34
2023-01-30T08:13:20.412Z,0.37
2023-01-30T08:14:23.613Z,0.41
2023-01-30T08:15:26.250Z,0.44
2023-01-30T08:16:29.162Z,0.47
2023-01-30T08:17:31.845Z,0.51
2023-01-30T08:18:37.630Z,0.55
2023-01-30T08:19:40.680Z,0.58
2023-01-30T08:20:43.242Z,0.62
2023-01-30T08:21:45.668Z,0.65
2023-01-30T08:22:48.172Z,0.68
2023-01-30T08:23:51.023Z,0.71
2023-01-30T08:24:53.973Z,0.75
2023-01-30T08:26:01.835Z,0.78
2023-01-30T08:27:04.538Z,0.80
2023-01-30T08:28:07.114Z,0.82
2023-01-30T08:29:09.835Z,0.84
2023-01-30T08:30:13.347Z,0.86
2023-01-30T08:31:17.613Z,0.88
2023-01-30T08:32:20.330Z,0.89
2023-01-30T08:33:24.429Z,0.92
2023-01-30T08:34:27.204Z,0.94
2023-01-30T08:35:29.800Z,0.95
2023-01-30T08:36:34.507Z,0.97
2023-01-30T08:37:38.965Z,0.99
2023-01-30T08:38:41.655Z,1.01
2023-01-30T08:39:46.422Z,1.03
2023-01-30T08:40:52.699Z,1.07
2023-01-30T08:42:02.453Z,1.11
2023-01-30T08:43:09.953Z,1.17
2023-01-30T08:44:28.390Z,1.26
2023-01-30T08:46:10.178Z,1.44
2023-01-30T08:47:15.152Z,1.63
2023-01-30T08:48:50.155Z,1.69
2023-01-30T08:49:57.162Z,1.71
2023-01-30T08:51:05.706Z,1.72
2023-01-30T08:52:14.423Z,1.74
2023-01-30T08:53:23.047Z,1.76
2023-01-30T08:54:44.642Z,1.77
2023-01-30T08:56:19.025Z,1.79
2023-01-30T08:57:22.294Z,1.79
2023-01-30T08:58:24.703Z,1.80
2023-01-30T08:59:27.059Z,1.79
2023-01-30T09:00:29.760Z,1.79
2023-01-30T09:01:32.330Z,1.79
2023-01-30T09:02:35.241Z,1.80
2023-01-30T09:03:37.679Z,1.80
2023-01-30T09:04:40.452Z,1.80
2023-01-30T09:05:43.117Z,1.81
2023-01-30T09:06:45.484Z,1.81
2023-01-30T09:07:47.898Z,1.83
2023-01-30T09:08:50.267Z,1.84
2023-01-30T09:09:52.635Z,1.85
2023-01-30T09:10:59.523Z,1.85
2023-01-30T09:12:01.955Z,1.86
2023-01-30T09:13:05.575Z,1.86
2023-01-30T09:14:08.073Z,1.86
2023-01-30T09:15:11.049Z,1.86
2023-01-30T09:16:13.469Z,1.86
2023-01-30T09:17:16.000Z,1.87
2023-01-30T09:18:18.339Z,1.86
2023-01-30T09:19:21.582Z,1.87
2023-01-30T09:20:25.733Z,1.88
2023-01-30T09:21:28.627Z,1.90
2023-01-30T09:22:30.999Z,1.91
2023-01-30T09:23:33.762Z,1.92
2023-01-30T09:24:36.347Z,1.93
2023-01-30T09:25:39.742Z,1.94
2023-01-30T09:26:45.010Z,1.95
2023-01-30T09:27:50.918Z,1.96
2023-01-30T09:28:53.759Z,1.98
2023-01-30T09:29:56.368Z,1.99
2023-01-30T09:30:59.954Z,2.01
2023-01-30T09:32:02.520Z,2.03
2023-01-30T09:33:04.926Z,2.05
2023-01-30T09:34:08.080Z,2.05
2023-01-30T09:35:10.983Z,2.07
2023-01-30T09:36:13.381Z,2.05
2023-01-30T09:37:16.062Z,2.05
2023-01-30T09:38:21.269Z,2.07
2023-01-30T09:39:25.950Z,2.09
2023-01-30T09:41:12.386Z,2.11
2023-01-30T09:42:30.940Z,2.13
2023-01-30T09:44:01.258Z,2.15
2023-01-30T09:45:35.138Z,2.17
2023-01-30T09:46:58.208Z,2.18
2023-01-30T09:48:23.064Z,2.19
2023-01-30T09:49:38.268Z,2.22
2023-01-30T09:50:47.153Z,2.26
2023-01-30T09:52:01.287Z,2.29
2023-01-30T09:53:38.701Z,2.32
2023-01-30T09:54:45.934Z,2.37
2023-01-30T09:55:48.956Z,2.39
2023-01-30T09:56:58.941Z,2.42
2023-01-30T09:58:01.448Z,2.46
2023-01-30T09:59:05.428Z,2.50
2023-01-30T10:00:37.336Z,2.54
2023-01-30T10:01:49.247Z,2.60
2023-01-30T10:03:11.111Z,2.64
2023-01-30T10:04:35.598Z,2.67
2023-01-30T10:05:54.754Z,2.71
2023-01-30T10:07:08.326Z,2.74
2023-01-30T10:08:44.504Z,2.76
2023-01-30T10:10:10.389Z,2.79
2023-01-30T10:11:41.056Z,2.81
2023-01-30T10:13:04.545Z,2.82
2023-01-30T10:14:36.209Z,2.83
2023-01-30T10:15:53.280Z,2.83
2023-01-30T10:17:25.033Z,2.83
2023-01-30T10:18:37.303Z,2.83
2023-01-30T10:19:58.173Z,2.84
2023-01-30T10:21:04.791Z,2.85
2023-01-30T10:22:21.459Z,2.85
2023-01-30T10:24:05.467Z,2.86
2023-01-30T10:25:23.979Z,2.87
2023-01-30T10:26:28.728Z,2.87
2023-01-30T10:27:34.019Z,2.88
2023-01-30T10:28:44.282Z,2.88
2023-01-30T10:29:54.264Z,2.87
2023-01-30T10:31:10.300Z,2.87
2023-01-30T10:32:41.857Z,2.88
2023-01-30T10:36:43.039Z,2.91
2023-01-30T10:38:58.296Z,2.93
2023-01-30T10:40:46.518Z,2.96
2023-01-30T10:44:27.335Z,3.02
2023-01-30T10:45:56.952Z,3.04
2023-01-30T10:47:09.493Z,3.04
2023-01-30T10:48:45.801Z,3.04
2023-01-30T10:50:09.155Z,3.03
2023-01-30T10:51:43.924Z,3.02
2023-01-30T10:53:02.087Z,3.01
2023-01-30T10:54:43.222Z,3.00
2023-01-30T10:55:48.970Z,3.00
2023-01-30T10:57:08.106Z,2.99
2023-01-30T10:58:16.035Z,2.99
2023-01-30T10:59:25.204Z,3.00
2023-01-30T11:01:00.986Z,3.00
2023-01-30T11:02:26.242Z,3.01
2023-01-30T11:03:56.883Z,3.03
2023-01-30T11:05:01.348Z,3.06
2023-01-30T11:06:12.424Z,3.08
2023-01-30T11:07:15.270Z,3.10
2023-01-30T11:08:27.068Z,3.12
2023-01-30T11:09:47.187Z,3.13
2023-01-30T11:10:51.073Z,3.15
2023-01-30T11:11:55.790Z,3.16
2023-01-30T11:13:13.908Z,3.17
2023-01-30T11:14:18.441Z,3.21
2023-01-30T11:15:25.000Z,3.22
2023-01-30T11:16:30.262Z,3.24
2023-01-30T11:17:38.752Z,3.26
2023-01-30T11:19:19.624Z,3.28
2023-01-30T11:20:14.897Z,3.30
2023-01-30T11:21:32.053Z,3.32
2023-01-30T11:22:49.571Z,3.34
2023-01-30T11:23:54.594Z,3.35
2023-01-30T11:25:02.129Z,3.36
2023-01-30T11:26:47.818Z,3.38
2023-01-30T11:28:16.799Z,3.39
2023-01-30T11:29:36.558Z,3.40
2023-01-30T11:30:45.559Z,3.41
2023-01-30T11:31:59.482Z,3.42
2023-01-30T11:33:10.290Z,3.43
2023-01-30T11:34:26.705Z,3.43
2023-01-30T11:35:40.653Z,3.43
2023-01-30T11:36:51.421Z,3.43
2023-01-30T11:40:08.160Z,3.43
2023-01-30T11:41:16.345Z,3.42
2023-01-30T11:42:23.462Z,3.42
2023-01-30T11:43:30.963Z,3.41
2023-01-30T11:44:40.463Z,3.39
2023-01-30T11:45:50.534Z,3.38
2023-01-30T11:46:58.540Z,3.37
2023-01-30T11:49:03.296Z,3.36
2023-01-30T11:50:28.851Z,3.36
2023-01-30T11:51:42.832Z,3.35
2023-01-30T11:52:54.104Z,3.37
2023-01-30T11:54:19.085Z,3.40
2023-01-30T11:55:31.252Z,3.46
2023-01-30T11:56:46.500Z,3.48
2023-01-30T11:57:57.074Z,3.52
2023-01-30T11:59:06.375Z,3.55
2023-01-30T12:00:20.805Z,3.56
2023-01-30T12:01:27.211Z,3.59
2023-01-30T12:02:34.334Z,3.62
2023-01-30T12:03:47.855Z,3.65
2023-01-30T12:05:03.364Z,3.68
2023-01-30T12:06:10.424Z,3.69
2023-01-30T12:07:27.786Z,3.70
2023-01-30T12:08:42.196Z,3.72
2023-01-30T12:09:45.265Z,3.73
2023-01-30T12:10:51.873Z,3.73
2023-01-30T12:11:54.384Z,3.73
2023-01-30T12:13:17.673Z,3.73
2023-01-30T12:14:41.641Z,3.73
2023-01-30T12:15:53.396Z,3.73
2023-01-30T12:17:02.813Z,3.73
2023-01-30T12:18:49.355Z,3.74
2023-01-30T12:20:06.335Z,3.73
2023-01-30T12:21:21.794Z,3.73
2023-01-30T12:22:41.598Z,3.73
2023-01-30T12:23:50.784Z,3.73
2023-01-30T12:25:01.985Z,3.72
2023-01-30T12:26:23.638Z,3.71
2023-01-30T12:32:23.045Z,3.72
2023-01-30T12:38:06.481Z,3.75
2023-01-30T12:41:45.424Z,3.77
2023-01-30T12:43:26.140Z,3.76
2023-01-30T12:44:50.938Z,3.74
2023-01-30T12:46:21.261Z,3.73
2023-01-30T12:49:10.902Z,3.70
2023-01-30T12:50:23.873Z,3.68
2023-01-30T12:51:36.616Z,3.67
2023-01-30T12:53:16.713Z,3.66
2023-01-30T12:54:36.355Z,3.65
2023-01-30T12:55:53.303Z,3.62
2023-01-30T12:57:14.501Z,3.60
2023-01-30T12:58:55.005Z,3.59
2023-01-30T13:00:12.540Z,3.58
2023-01-30T13:01:31.979Z,3.57
2023-01-30T13:03:31.893Z,3.57
2023-01-30T13:04:56.211Z,3.55
2023-01-30T13:06:12.221Z,3.54
2023-01-30T13:07:45.439Z,3.53
2023-01-30T19:38:09.851Z,3.27
2023-01-30T19:39:12.303Z,3.28
2023-01-30T19:40:14.652Z,3.29
2023-01-30T19:41:29.006Z,3.30
2023-01-30T19:42:31.513Z,3.30
2023-01-30T19:43:33.984Z,3.31
2023-01-30T19:44:37.831Z,3.31
2023-01-30T19:45:42.350Z,3.31
2023-01-30T19:46:45.141Z,3.31
2023-01-30T19:47:47.627Z,3.32
2023-01-30T19:48:50.379Z,3.32
2023-01-30T19:49:53.987Z,3.31
2023-01-30T19:50:57.237Z,3.32
2023-01-30T19:52:03.682Z,3.32
2023-01-30T19:53:06.131Z,3.32
2023-01-30T19:54:12.405Z,3.33
2023-01-30T19:55:18.690Z,3.33
2023-01-30T19:56:22.663Z,3.33
2023-01-30T19:57:25.647Z,3.34
2023-01-30T19:58:28.133Z,3.34
2023-01-30T19:59:31.076Z,3.34
2023-01-30T20:00:33.820Z,3.35
2023-01-30T20:01:42.469Z,3.35
2023-01-30T20:02:45.610Z,3.35
2023-01-30T20:03:51.320Z,3.35
2023-01-30T20:04:55.717Z,3.35
2023-01-30T20:06:14.169Z,3.35
2023-01-30T20:07:16.802Z,3.35
2023-01-30T20:08:31.998Z,3.36
2023-01-30T20:09:36.379Z,3.36
2023-01-30T20:10:39.179Z,3.37
2023-01-30T20:11:42.460Z,3.37
2023-01-30T20:12:46.820Z,3.38
2023-01-30T20:14:11.649Z,3.38
2023-01-30T20:15:13.988Z,3.39
2023-01-30T20:16:20.452Z,3.40
2023-01-30T20:17:23.098Z,3.40
2023-01-30T20:18:25.690Z,3.40
2023-01-30T20:19:28.303Z,3.41
2023-01-30T20:20:31.635Z,3.43
2023-01-30T20:21:34.944Z,3.44
2023-01-30T20:22:37.406Z,3.45
2023-01-30T20:23:44.865Z,3.45
2023-01-30T20:24:48.218Z,3.46
2023-01-30T20:25:50.603Z,3.47
2023-01-30T20:26:53.031Z,3.48
2023-01-30T20:27:55.397Z,3.48
2023-01-30T20:28:58.312Z,3.49
2023-01-30T20:30:00.743Z,3.49
2023-01-30T20:31:14.863Z,3.50
2023-01-30T20:32:17.301Z,3.51
2023-01-30T20:33:19.694Z,3.51
2023-01-30T20:34:22.228Z,3.52
2023-01-30T20:35:24.625Z,3.52
2023-01-30T20:36:27.247Z,3.53
2023-01-30T20:37:29.658Z,3.54
2023-01-30T20:38:33.562Z,3.56
2023-01-30T20:39:35.966Z,3.56
2023-01-30T20:40:38.527Z,3.56
2023-01-30T20:41:41.148Z,3.57
2023-01-30T20:42:44.720Z,3.58
2023-01-30T20:43:51.015Z,3.58
2023-01-30T20:44:53.469Z,3.59
2023-01-30T20:46:10.509Z,3.60
2023-01-30T20:47:13.044Z,3.61
2023-01-30T20:48:17.095Z,3.62
2023-01-30T20:49:21.826Z,3.62
2023-01-30T20:50:25.097Z,3.63
2023-01-30T20:51:30.209Z,3.64
2023-01-30T20:52:32.925Z,3.65
2023-01-30T20:53:37.552Z,3.65
2023-01-30T20:54:40.597Z,3.66
2023-01-30T20:55:48.580Z,3.67
2023-01-30T20:56:53.219Z,3.68
2023-01-30T20:57:55.705Z,3.69
2023-01-30T20:58:58.105Z,3.70
2023-01-30T21:00:00.682Z,3.71
2023-01-30T21:01:12.829Z,3.72
2023-01-30T21:02:15.246Z,3.73
2023-01-30T21:03:17.636Z,3.74
2023-01-30T21:04:21.938Z,3.76
2023-01-30T21:05:24.432Z,3.77
2023-01-30T21:06:41.263Z,3.78
2023-01-30T21:07:45.850Z,3.80
2023-01-30T21:08:48.314Z,3.81
2023-01-30T21:09:50.797Z,3.82
2023-01-30T21:10:54.423Z,3.84
2023-01-30T21:11:57.032Z,3.85
2023-01-30T21:13:02.092Z,3.87
2023-01-30T21:14:05.243Z,3.89
2023-01-30T21:15:08.403Z,3.91
2023-01-30T21:16:15.658Z,3.92
2023-01-30T21:17:18.112Z,3.94
2023-01-30T21:18:20.505Z,3.96
2023-01-30T21:19:23.389Z,3.97
2023-01-30T21:20:26.106Z,3.99
2023-01-30T21:21:42.142Z,4.00
2023-01-30T21:22:45.644Z,4.02
2023-01-30T21:23:49.132Z,4.03
2023-01-30T21:24:51.540Z,4.04
2023-01-30T21:25:54.211Z,4.05
2023-01-30T21:26:57.364Z,4.06
2023-01-30T21:28:01.035Z,4.07
2023-01-30T21:29:07.065Z,4.08
2023-01-30T21:30:10.107Z,4.08
2023-01-30T21:31:18.596Z,4.09
2023-01-30T21:32:21.557Z,4.09
2023-01-30T21:33:24.332Z,4.10
2023-01-30T21:34:27.112Z,4.11